Time;durP1;ratioP1;P1;durP2;ratioP2;P2;SDS_P1;SDS_P2;PMS_P1;PMS_P2;Temp;Humidity;BMP_temperature;BMP_pressure;BME280_temperature;BME280_humidity;BME280_pressure;Samples;Min_cycle;Max_cycle;Signal;HPM_P1;HPM_P2
2021/06/23 00:02:07;;;;;;;;;;;16.90;87.30;;;;;;4360629;32;44458;-75
2021/06/23 00:04:37;;;;;;;;;;;16.90;87.40;;;;;;4361029;32;33886;-75
2021/06/23 00:07:04;;;;;;;;;;;16.90;87.40;;;;;;4361774;32;44309;-76
2021/06/23 00:09:31;;;;;;;;;;;16.90;87.40;;;;;;4362618;32;31800;-75
2021/06/23 00:11:58;;;;;;;;;;;16.90;87.40;;;;;;4361721;32;20013;-76
2021/06/23 00:14:31;;;;;;;;;;;16.90;87.40;;;;;;4362366;32;43370;-75
2021/06/23 00:16:58;;;;;;;;;;;16.90;87.40;;;;;;4362193;32;44583;-76
2021/06/23 00:19:28;;;;;;;;;;;16.90;87.40;;;;;;4362019;32;44248;-75
2021/06/23 00:21:57;;;;;;;;;;;16.90;87.40;;;;;;4362215;32;43271;-76
2021/06/23 00:24:27;;;;;;;;;;;16.90;87.50;;;;;;4348652;32;43051;-76
2021/06/23 00:26:57;;;;;;;;;;;16.90;87.50;;;;;;4360742;32;44346;-75
2021/06/23 00:29:27;;;;;;;;;;;16.90;87.50;;;;;;4361061;32;44365;-76
2021/06/23 00:31:57;;;;;;;;;;;16.80;87.50;;;;;;4361367;32;43597;-75
2021/06/23 00:34:30;;;;;;;;;;;16.90;87.50;;;;;;4360805;32;28610;-75
2021/06/23 00:37:00;;;;;;;;;;;16.90;87.50;;;;;;4362107;32;44216;-75
2021/06/23 00:39:27;;;;;;;;;;;16.80;87.50;;;;;;4360267;32;43680;-75
2021/06/23 00:41:55;;;;;;;;;;;16.80;87.50;;;;;;4360766;32;26037;-75
2021/06/23 00:44:22;;;;;;;;;;;16.80;87.60;;;;;;4362627;32;20005;-75
2021/06/23 00:46:52;;;;;;;;;;;16.80;87.50;;;;;;4361075;32;20001;-75
2021/06/23 00:49:19;;;;;;;;;;;16.80;87.50;;;;;;4362976;32;20017;-75
2021/06/23 00:51:47;;;;;;;;;;;16.80;87.50;;;;;;4361034;32;24305;-75
2021/06/23 00:54:17;;;;;;;;;;;16.80;87.50;;;;;;4361887;32;20071;-76
2021/06/23 00:56:44;;;;;;;;;;;16.80;87.50;;;;;;4360146;32;43491;-75
2021/06/23 00:59:12;;;;;;;;;;;16.80;87.50;;;;;;4362585;32;20385;-76
2021/06/23 01:01:41;;;;;;;;;;;16.80;87.50;;;;;;4361495;32;20001;-75
2021/06/23 01:04:11;;;;;;;;;;;16.80;87.40;;;;;;4360575;32;29995;-76
2021/06/23 01:06:38;;;;;;;;;;;16.80;87.60;;;;;;4361245;32;44712;-76
2021/06/23 01:09:08;;;;;;;;;;;16.80;87.60;;;;;;4360877;32;20176;-76
2021/06/23 01:11:54;;;;;;;;;;;16.80;87.50;;;;;;4361409;32;43356;-75
2021/06/23 01:14:21;;;;;;;;;;;16.70;87.40;;;;;;4360187;32;43944;-75
2021/06/23 01:16:48;;;;;;;;;;;16.70;87.40;;;;;;4361304;32;44175;-76
2021/06/23 01:19:18;;;;;;;;;;;16.70;87.40;;;;;;4362496;32;20005;-77
2021/06/23 01:21:48;;;;;;;;;;;16.70;87.40;;;;;;4359678;32;43227;-76
2021/06/23 01:24:15;;;;;;;;;;;16.70;87.50;;;;;;4361048;32;43394;-76
2021/06/23 01:26:42;;;;;;;;;;;16.70;87.50;;;;;;4362465;32;20042;-76
2021/06/23 01:29:12;;;;;;;;;;;16.70;87.40;;;;;;4360028;32;43505;-76
2021/06/23 01:31:39;;;;;;;;;;;16.70;87.40;;;;;;4361336;32;44243;-76
2021/06/23 01:34:06;;;;;;;;;;;16.70;87.30;;;;;;4361154;32;44447;-76
2021/06/23 01:36:34;;;;;;;;;;;16.70;87.40;;;;;;4360973;32;44386;-76
2021/06/23 01:39:05;;;;;;;;;;;16.70;87.30;;;;;;4359874;32;27524;-76
2021/06/23 01:41:35;;;;;;;;;;;16.70;87.30;;;;;;4360788;32;42946;-76
2021/06/23 01:44:02;;;;;;;;;;;16.70;87.30;;;;;;4361123;32;44562;-76
2021/06/23 01:46:32;;;;;;;;;;;16.70;87.30;;;;;;4347344;32;44011;-76
2021/06/23 01:48:59;;;;;;;;;;;16.70;87.30;;;;;;4360723;32;44276;-76
2021/06/23 01:51:26;;;;;;;;;;;16.60;87.30;;;;;;4359210;32;43566;-76
2021/06/23 01:53:56;;;;;;;;;;;16.70;87.30;;;;;;4362007;32;20012;-76
2021/06/23 01:56:23;;;;;;;;;;;16.60;87.20;;;;;;4359485;32;44301;-76
2021/06/23 01:58:50;;;;;;;;;;;16.60;87.30;;;;;;4359412;32;42236;-76
2021/06/23 02:01:37;;;;;;;;;;;16.60;87.20;;;;;;4361909;32;20008;-76
2021/06/23 02:04:25;;;;;;;;;;;16.60;87.30;;;;;;4359450;32;43939;-76
2021/06/23 02:07:04;;;;;;;;;;;16.60;87.30;;;;;;4356663;32;44392;-76
2021/06/23 02:10:00;;;;;;;;;;;16.60;87.30;;;;;;4346696;32;43545;-75
2021/06/23 02:12:43;;;;;;;;;;;16.60;87.30;;;;;;4359157;32;45081;-76
2021/06/23 02:15:10;;;;;;;;;;;16.60;87.40;;;;;;4348270;32;20406;-75
2021/06/23 02:17:42;;;;;;;;;;;16.60;87.40;;;;;;4361674;32;20028;-76
2021/06/23 02:20:09;;;;;;;;;;;16.60;87.40;;;;;;4360619;32;43602;-76
2021/06/23 02:22:37;;;;;;;;;;;16.60;87.40;;;;;;4359211;32;44079;-76
2021/06/23 02:25:10;;;;;;;;;;;16.60;87.50;;;;;;4361469;32;20016;-76
2021/06/23 02:27:41;;;;;;;;;;;16.60;87.40;;;;;;4360340;32;43210;-76
2021/06/23 02:30:09;;;;;;;;;;;16.50;87.40;;;;;;4359504;32;44539;-76
2021/06/23 02:32:37;;;;;;;;;;;16.50;87.40;;;;;;4359874;32;45257;-77
2021/06/23 02:35:05;;;;;;;;;;;16.60;87.50;;;;;;4360443;32;43398;-77
2021/06/23 02:37:33;;;;;;;;;;;16.60;87.50;;;;;;4360299;32;44333;-76
2021/06/23 02:40:00;;;;;;;;;;;16.50;87.40;;;;;;4360498;32;44250;-76
2021/06/23 02:42:28;;;;;;;;;;;16.50;88.20;;;;;;4361398;32;20064;-76
2021/06/23 02:44:58;;;;;;;;;;;16.50;87.50;;;;;;4360353;32;44371;-77
2021/06/23 02:47:31;;;;;;;;;;;16.60;87.60;;;;;;4359755;33;44492;-76
2021/06/23 02:50:00;;;;;;;;;;;16.50;87.50;;;;;;4359237;33;44461;-77
2021/06/23 02:52:27;;;;;;;;;;;16.50;87.50;;;;;;4359714;33;44368;-77
2021/06/23 02:54:54;;;;;;;;;;;16.50;87.60;;;;;;4360086;33;42978;-77
2021/06/23 02:57:22;;;;;;;;;;;16.50;87.50;;;;;;4359903;33;43246;-77
2021/06/23 02:59:49;;;;;;;;;;;16.50;87.50;;;;;;4359928;33;43424;-77
2021/06/23 03:02:17;;;;;;;;;;;16.50;87.60;;;;;;4358796;33;44421;-77
2021/06/23 03:04:45;;;;;;;;;;;16.50;87.60;;;;;;4359562;33;42356;-76
2021/06/23 03:07:16;;;;;;;;;;;16.50;87.60;;;;;;4358670;33;43230;-77
2021/06/23 03:09:43;;;;;;;;;;;16.50;87.70;;;;;;4360891;33;20013;-77
2021/06/23 03:12:12;;;;;;;;;;;16.50;87.60;;;;;;4360073;33;44472;-77
2021/06/23 03:14:39;;;;;;;;;;;16.50;87.70;;;;;;4361033;33;20082;-77
2021/06/23 03:17:09;;;;;;;;;;;16.40;87.60;;;;;;4360534;33;26177;-77
2021/06/23 03:19:37;;;;;;;;;;;16.50;87.60;;;;;;4359549;33;44354;-78
2021/06/23 03:22:08;;;;;;;;;;;16.40;87.60;;;;;;4359544;33;43317;-77
2021/06/23 03:24:37;;;;;;;;;;;16.50;87.70;;;;;;4361163;33;20000;-77
2021/06/23 03:27:05;;;;;;;;;;;16.40;87.70;;;;;;4359521;32;42456;-77
2021/06/23 03:29:34;;;;;;;;;;;16.40;87.70;;;;;;4361280;32;43377;-78
2021/06/23 03:32:06;;;;;;;;;;;16.40;87.70;;;;;;4361434;32;43623;-77
2021/06/23 03:34:34;;;;;;;;;;;16.40;87.70;;;;;;4348926;32;44490;-77
2021/06/23 03:37:02;;;;;;;;;;;16.40;87.70;;;;;;4362817;32;43194;-77
2021/06/23 03:39:29;;;;;;;;;;;16.40;87.70;;;;;;4363066;32;25325;-77
2021/06/23 03:41:56;;;;;;;;;;;16.40;87.70;;;;;;4363297;32;20011;-77
2021/06/23 03:44:26;;;;;;;;;;;16.40;87.70;;;;;;4363203;32;21125;-77
2021/06/23 03:46:56;;;;;;;;;;;16.40;87.70;;;;;;4362117;32;42385;-77
2021/06/23 03:49:23;;;;;;;;;;;16.40;87.80;;;;;;4362311;32;43272;-77
2021/06/23 03:51:56;;;;;;;;;;;16.40;87.80;;;;;;4361024;32;43441;-77
2021/06/23 03:54:26;;;;;;;;;;;16.40;87.80;;;;;;4362804;32;28474;-77
2021/06/23 03:56:53;;;;;;;;;;;16.40;87.80;;;;;;4360813;32;44833;-77
2021/06/23 03:59:24;;;;;;;;;;;16.40;87.80;;;;;;4361896;32;43674;-78
2021/06/23 04:01:54;;;;;;;;;;;16.40;87.80;;;;;;4362057;32;40405;-77
2021/06/23 04:04:21;;;;;;;;;;;16.40;87.80;;;;;;4362286;32;43416;-77
2021/06/23 04:06:48;;;;;;;;;;;16.40;87.90;;;;;;4362734;32;20015;-77
2021/06/23 04:09:18;;;;;;;;;;;16.40;87.80;;;;;;4362221;32;43379;-78
2021/06/23 04:11:47;;;;;;;;;;;16.40;87.90;;;;;;4362245;32;42454;-77
2021/06/23 04:14:14;;;;;;;;;;;16.40;87.90;;;;;;4361767;32;42061;-77
2021/06/23 04:16:44;;;;;;;;;;;16.40;87.90;;;;;;4362202;32;27583;-77
2021/06/23 04:19:11;;;;;;;;;;;16.40;87.90;;;;;;4360546;32;43470;-79
2021/06/23 04:21:38;;;;;;;;;;;16.30;87.90;;;;;;4360617;32;42685;-77
2021/06/23 04:24:06;;;;;;;;;;;16.40;87.90;;;;;;4361763;32;43727;-77
2021/06/23 04:26:33;;;;;;;;;;;16.30;87.80;;;;;;4362379;32;20021;-77
2021/06/23 04:29:00;;;;;;;;;;;16.30;87.80;;;;;;4361995;32;20076;-77
2021/06/23 04:31:31;;;;;;;;;;;16.30;87.90;;;;;;4361540;32;21174;-77
2021/06/23 04:33:59;;;;;;;;;;;16.30;87.80;;;;;;4360893;32;44620;-77
2021/06/23 04:36:32;;;;;;;;;;;16.30;87.90;;;;;;4360798;32;42715;-78
2021/06/23 04:38:59;;;;;;;;;;;16.30;88.00;;;;;;4360739;32;43663;-76
2021/06/23 04:41:26;;;;;;;;;;;16.20;87.90;;;;;;4361365;32;43673;-77
2021/06/23 04:43:56;;;;;;;;;;;16.20;88.00;;;;;;4360208;32;43502;-77
2021/06/23 04:46:26;;;;;;;;;;;16.20;87.90;;;;;;4361905;32;44228;-77
2021/06/23 04:48:55;;;;;;;;;;;16.20;88.00;;;;;;4361797;32;44401;-77
2021/06/23 04:51:22;;;;;;;;;;;16.20;88.00;;;;;;4360075;32;44567;-77
2021/06/23 04:53:52;;;;;;;;;;;16.20;88.00;;;;;;4361413;32;43848;-77
2021/06/23 04:56:22;;;;;;;;;;;16.20;88.00;;;;;;4361680;32;44709;-77
2021/06/23 04:58:52;;;;;;;;;;;16.20;88.00;;;;;;4362137;32;29382;-77
2021/06/23 05:01:21;;;;;;;;;;;16.20;88.00;;;;;;4360558;32;24772;-77
2021/06/23 05:03:52;;;;;;;;;;;16.20;88.00;;;;;;4347465;32;42431;-77
2021/06/23 05:06:21;;;;;;;;;;;16.20;88.00;;;;;;4361483;32;20022;-77
2021/06/23 05:08:53;;;;;;;;;;;16.20;88.10;;;;;;4361418;32;43481;-77
2021/06/23 05:11:21;;;;;;;;;;;16.20;88.10;;;;;;4360095;32;42645;-77
2021/06/23 05:13:51;;;;;;;;;;;16.20;88.10;;;;;;4361883;32;24082;-77
2021/06/23 05:16:18;;;;;;;;;;;16.10;88.00;;;;;;4361046;32;20073;-76
2021/06/23 05:18:52;;;;;;;;;;;16.10;88.00;;;;;;4361089;32;21188;-77
2021/06/23 05:21:20;;;;;;;;;;;16.20;88.10;;;;;;4360879;32;42363;-77
2021/06/23 05:23:47;;;;;;;;;;;16.20;88.10;;;;;;4359988;32;43197;-77
2021/06/23 05:26:18;;;;;;;;;;;16.10;88.10;;;;;;4361046;32;43303;-77
2021/06/23 05:28:49;;;;;;;;;;;16.10;88.00;;;;;;4360145;32;44413;-77
2021/06/23 05:31:18;;;;;;;;;;;16.10;88.00;;;;;;4362649;32;19997;-77
2021/06/23 05:33:46;;;;;;;;;;;16.10;88.00;;;;;;4360038;32;42918;-77
2021/06/23 05:36:15;;;;;;;;;;;16.10;88.10;;;;;;4348356;32;20011;-77
2021/06/23 05:38:42;;;;;;;;;;;16.10;88.10;;;;;;4360987;32;44635;-77
2021/06/23 05:41:09;;;;;;;;;;;16.10;88.10;;;;;;4360921;32;42965;-77
2021/06/23 05:43:36;;;;;;;;;;;16.10;88.00;;;;;;4360840;32;43268;-76
2021/06/23 05:46:03;;;;;;;;;;;16.10;88.00;;;;;;4360592;32;43411;-77
2021/06/23 05:48:31;;;;;;;;;;;16.10;88.10;;;;;;4360614;32;42602;-76
2021/06/23 05:50:58;;;;;;;;;;;16.10;88.10;;;;;;4360279;32;43642;-76
2021/06/23 05:53:28;;;;;;;;;;;16.10;88.20;;;;;;4360870;32;44760;-76
2021/06/23 05:55:55;;;;;;;;;;;16.10;88.20;;;;;;4362092;32;20023;-76
2021/06/23 05:58:23;;;;;;;;;;;16.10;88.20;;;;;;4360323;32;44604;-76
2021/06/23 06:00:50;;;;;;;;;;;16.10;88.20;;;;;;4359538;32;43783;-76
2021/06/23 06:03:18;;;;;;;;;;;16.10;88.20;;;;;;4360022;32;44372;-77
2021/06/23 06:05:46;;;;;;;;;;;16.10;88.20;;;;;;4359991;33;43266;-76
2021/06/23 06:08:13;;;;;;;;;;;16.10;88.20;;;;;;4359887;33;43235;-77
2021/06/23 06:10:40;;;;;;;;;;;16.10;88.20;;;;;;4358359;33;44463;-76
2021/06/23 06:13:07;;;;;;;;;;;16.10;88.10;;;;;;4358491;33;44444;-76
2021/06/23 06:15:38;;;;;;;;;;;16.10;88.20;;;;;;4359075;33;44766;-77
2021/06/23 06:18:09;;;;;;;;;;;16.00;88.20;;;;;;4359528;33;43675;-77
2021/06/23 06:20:36;;;;;;;;;;;16.00;88.20;;;;;;4359993;33;43407;-76
2021/06/23 06:23:03;;;;;;;;;;;16.00;88.20;;;;;;4359971;33;43203;-76
2021/06/23 06:25:31;;;;;;;;;;;16.00;88.30;;;;;;4359781;33;44984;-77
2021/06/23 06:28:01;;;;;;;;;;;16.00;88.30;;;;;;4358423;33;43616;-76
2021/06/23 06:30:28;;;;;;;;;;;16.00;88.40;;;;;;4358563;33;43850;-76
2021/06/23 06:32:56;;;;;;;;;;;16.00;88.40;;;;;;4359446;33;41148;-76
2021/06/23 06:35:24;;;;;;;;;;;16.00;88.40;;;;;;4359402;33;20021;-76
2021/06/23 06:37:51;;;;;;;;;;;16.00;88.50;;;;;;4358578;33;42707;-77
2021/06/23 06:40:18;;;;;;;;;;;16.00;88.40;;;;;;4360119;33;20039;-76
2021/06/23 06:42:48;;;;;;;;;;;16.00;88.50;;;;;;4359620;33;31032;-76
2021/06/23 06:45:15;;;;;;;;;;;16.00;88.50;;;;;;4358560;33;44970;-76
2021/06/23 06:47:43;;;;;;;;;;;16.00;88.50;;;;;;4359815;33;43366;-76
2021/06/23 06:50:10;;;;;;;;;;;16.00;88.50;;;;;;4359632;33;43569;-76
2021/06/23 06:52:37;;;;;;;;;;;16.00;88.60;;;;;;4359668;33;39382;-76
2021/06/23 06:55:05;;;;;;;;;;;16.00;88.50;;;;;;4345786;33;44066;-76
2021/06/23 06:57:32;;;;;;;;;;;16.00;88.60;;;;;;4358656;33;44420;-76
2021/06/23 07:00:00;;;;;;;;;;;16.00;89.40;;;;;;4359177;33;44496;-76
2021/06/23 07:02:27;;;;;;;;;;;16.00;88.70;;;;;;4359518;32;44649;-77
2021/06/23 07:04:54;;;;;;;;;;;16.00;88.60;;;;;;4363075;32;44333;-76
2021/06/23 07:07:22;;;;;;;;;;;16.00;88.70;;;;;;4363105;32;44586;-76
2021/06/23 07:09:49;;;;;;;;;;;16.00;88.70;;;;;;4362909;32;43659;-76
2021/06/23 07:12:16;;;;;;;;;;;16.00;88.70;;;;;;4362976;32;43311;-76
2021/06/23 07:14:43;;;;;;;;;;;16.00;88.80;;;;;;4362844;32;44401;-76
2021/06/23 07:17:10;;;;;;;;;;;16.00;88.80;;;;;;4362951;32;43285;-76
2021/06/23 07:19:37;;;;;;;;;;;16.00;88.90;;;;;;4362663;32;20024;-77
2021/06/23 07:22:06;;;;;;;;;;;16.00;88.80;;;;;;4362779;32;43286;-76
2021/06/23 07:24:34;;;;;;;;;;;15.90;88.80;;;;;;4362514;32;43238;-76
2021/06/23 07:27:01;;;;;;;;;;;15.90;88.90;;;;;;4362649;32;43330;-76
2021/06/23 07:29:28;;;;;;;;;;;16.00;89.00;;;;;;4362803;32;43060;-76
2021/06/23 07:32:07;;;;;;;;;;;16.00;89.00;;;;;;4361525;32;43595;-77
2021/06/23 07:37:11;;;;;;;;;;;16.00;89.00;;;;;;4364015;32;20047;-76
2021/06/23 07:39:38;;;;;;;;;;;15.90;89.00;;;;;;4362609;32;44788;-77
2021/06/23 07:42:08;;;;;;;;;;;15.90;89.00;;;;;;4362890;32;44303;-76
2021/06/23 07:44:46;;;;;;;;;;;16.00;89.10;;;;;;4362497;32;44360;-76
2021/06/23 07:47:18;;;;;;;;;;;15.90;89.10;;;;;;4363039;32;44353;-76
2021/06/23 07:49:46;;;;;;;;;;;15.90;89.20;;;;;;4362597;32;43313;-76
2021/06/23 08:03:15;;;;;;;;;;;15.90;89.20;;;;;;4362191;32;39804;-76
2021/06/23 08:08:46;;;;;;;;;;;15.90;89.40;;;;;;4362726;32;44744;-76
2021/06/23 08:11:18;;;;;;;;;;;15.90;89.50;;;;;;4362715;32;39883;-76
2021/06/23 08:13:45;;;;;;;;;;;15.90;89.60;;;;;;4362200;32;44347;-76
2021/06/23 08:16:13;;;;;;;;;;;16.00;89.50;;;;;;4361017;32;44876;-76
2021/06/23 08:18:41;;;;;;;;;;;15.90;89.40;;;;;;4361975;32;43377;-76
2021/06/23 08:21:08;;;;;;;;;;;15.90;89.50;;;;;;4361673;32;44857;-74
2021/06/23 08:23:35;;;;;;;;;;;15.90;89.50;;;;;;4360842;32;44095;-75
2021/06/23 08:26:02;;;;;;;;;;;15.90;89.50;;;;;;4362099;32;43361;-75
2021/06/23 08:28:29;;;;;;;;;;;15.90;89.60;;;;;;4362101;32;43375;-76
2021/06/23 08:30:56;;;;;;;;;;;15.90;89.50;;;;;;4348597;32;43880;-76
2021/06/23 08:33:26;;;;;;;;;;;16.00;89.50;;;;;;4360694;32;38181;-75
2021/06/23 08:35:54;;;;;;;;;;;15.90;89.50;;;;;;4360577;32;43771;-76
2021/06/23 08:38:22;;;;;;;;;;;16.00;89.60;;;;;;4360374;32;43667;-76
2021/06/23 08:40:51;;;;;;;;;;;16.00;89.70;;;;;;4363069;32;20091;-76
2021/06/23 08:43:21;;;;;;;;;;;16.00;89.70;;;;;;4361786;32;44468;-76
2021/06/23 08:45:51;;;;;;;;;;;16.00;89.70;;;;;;4348518;32;24694;-76
2021/06/23 08:48:19;;;;;;;;;;;16.00;89.70;;;;;;4361272;32;44079;-76
2021/06/23 08:50:46;;;;;;;;;;;16.00;89.80;;;;;;4362524;32;20076;-76
2021/06/23 08:53:16;;;;;;;;;;;16.00;89.90;;;;;;4361761;32;25669;-76
2021/06/23 08:55:43;;;;;;;;;;;16.00;89.90;;;;;;4361394;32;43269;-76
2021/06/23 08:58:10;;;;;;;;;;;16.00;89.90;;;;;;4361339;32;43357;-76
2021/06/23 09:00:38;;;;;;;;;;;15.90;89.70;;;;;;4361268;32;44543;-76
2021/06/23 09:03:08;;;;;;;;;;;16.00;89.80;;;;;;4361136;32;44012;-76
2021/06/23 09:05:45;;;;;;;;;;;16.00;89.80;;;;;;4359843;32;45085;-76
2021/06/23 09:08:12;;;;;;;;;;;16.00;89.80;;;;;;4361429;32;27906;-76
2021/06/23 09:10:39;;;;;;;;;;;16.00;89.80;;;;;;4360085;32;43438;-76
2021/06/23 09:13:06;;;;;;;;;;;16.00;89.80;;;;;;4360152;32;44493;-76
2021/06/23 09:15:46;;;;;;;;;;;16.00;89.90;;;;;;4359694;32;45079;-76
2021/06/23 09:18:16;;;;;;;;;;;16.00;89.90;;;;;;4361161;32;42757;-76
2021/06/23 09:20:46;;;;;;;;;;;16.00;89.90;;;;;;4361359;32;44445;-76
2021/06/23 09:23:13;;;;;;;;;;;16.00;89.90;;;;;;4361190;32;29301;-76
2021/06/23 09:25:45;;;;;;;;;;;16.00;89.90;;;;;;4360071;32;43523;-76
2021/06/23 09:28:13;;;;;;;;;;;16.00;90.00;;;;;;4362414;32;20087;-76
2021/06/23 09:30:42;;;;;;;;;;;16.00;89.90;;;;;;4361264;32;24093;-76
2021/06/23 09:33:15;;;;;;;;;;;16.00;89.90;;;;;;4360749;32;22960;-76
2021/06/23 09:35:46;;;;;;;;;;;16.00;89.90;;;;;;4360667;32;21476;-76
2021/06/23 09:38:37;;;;;;;;;;;16.00;89.80;;;;;;4362202;32;20001;-75
2021/06/23 09:41:06;;;;;;;;;;;16.00;89.90;;;;;;4361823;32;20001;-76
2021/06/23 09:43:40;;;;;;;;;;;16.00;89.80;;;;;;4361891;32;20057;-76
2021/06/23 09:46:14;;;;;;;;;;;16.00;89.90;;;;;;4348530;32;20009;-76
2021/06/23 09:48:42;;;;;;;;;;;16.00;90.00;;;;;;4360824;32;29759;-75
2021/06/23 09:51:16;;;;;;;;;;;16.00;90.00;;;;;;4361604;32;20459;-82
2021/06/23 09:53:43;;;;;;;;;;;16.00;90.00;;;;;;4360236;32;23353;-81
2021/06/23 09:56:25;;;;;;;;;;;16.00;90.00;;;;;;4360481;32;19998;-82
2021/06/23 09:58:55;;;;;;;;;;;16.00;89.90;;;;;;4361197;32;28520;-77
2021/06/23 10:01:23;;;;;;;;;;;16.00;89.90;;;;;;4361223;32;20064;-78
2021/06/23 10:04:01;;;;;;;;;;;16.00;89.90;;;;;;4361465;32;21180;-78
2021/06/23 10:06:29;;;;;;;;;;;16.00;90.00;;;;;;4359869;32;28606;-77
2021/06/23 10:09:18;;;;;;;;;;;16.00;89.90;;;;;;4360135;32;23578;-77
2021/06/23 10:11:47;;;;;;;;;;;16.00;89.90;;;;;;4361521;32;20414;-78
2021/06/23 10:14:22;;;;;;;;;;;16.00;89.90;;;;;;4360111;32;26675;-77
2021/06/23 10:16:52;;;;;;;;;;;16.00;89.90;;;;;;4360430;32;20055;-77
2021/06/23 10:19:20;;;;;;;;;;;16.00;89.90;;;;;;4360000;32;20020;-77
2021/06/23 10:21:53;;;;;;;;;;;16.00;89.90;;;;;;4360385;32;29075;-78
2021/06/23 10:24:21;;;;;;;;;;;16.00;89.90;;;;;;4360390;32;20013;-77
2021/06/23 10:26:52;;;;;;;;;;;16.00;89.90;;;;;;4347133;32;29140;-77
2021/06/23 10:29:30;;;;;;;;;;;16.00;89.80;;;;;;4361131;32;24145;-77
2021/06/23 10:32:04;;;;;;;;;;;16.00;89.90;;;;;;4359926;32;26370;-77
2021/06/23 10:34:33;;;;;;;;;;;16.00;89.90;;;;;;4347315;32;27232;-77
2021/06/23 10:37:06;;;;;;;;;;;16.00;89.80;;;;;;4347357;32;24655;-77
2021/06/23 10:39:36;;;;;;;;;;;16.00;89.80;;;;;;4359436;32;26360;-77
2021/06/23 10:42:04;;;;;;;;;;;16.10;89.80;;;;;;4360872;32;29691;-77
2021/06/23 10:44:43;;;;;;;;;;;16.10;89.80;;;;;;4361069;32;20020;-78
2021/06/23 10:47:27;;;;;;;;;;;16.00;89.70;;;;;;4359384;32;29334;-77
2021/06/23 10:49:57;;;;;;;;;;;16.00;89.70;;;;;;4359679;33;32885;-77
2021/06/23 10:52:25;;;;;;;;;;;16.10;89.60;;;;;;4360542;33;28772;-77
2021/06/23 10:54:52;;;;;;;;;;;16.10;89.60;;;;;;4360632;33;28407;-77
2021/06/23 10:57:23;;;;;;;;;;;16.10;89.60;;;;;;4359471;33;20472;-77
2021/06/23 10:59:52;;;;;;;;;;;16.10;89.60;;;;;;4359273;33;21914;-77
2021/06/23 11:02:28;;;;;;;;;;;16.10;89.60;;;;;;4359243;33;20019;-77
2021/06/23 11:05:02;;;;;;;;;;;16.10;90.10;;;;;;4347908;33;19993;-77
2021/06/23 11:07:35;;;;;;;;;;;16.10;89.60;;;;;;4347303;33;26914;-77
2021/06/23 11:10:19;;;;;;;;;;;16.10;89.50;;;;;;4360834;33;20005;-77
2021/06/23 11:12:47;;;;;;;;;;;16.10;89.50;;;;;;4347976;33;20393;-77
2021/06/23 11:15:16;;;;;;;;;;;16.10;89.50;;;;;;4359856;33;42414;-77
2021/06/23 11:17:43;;;;;;;;;;;16.10;89.50;;;;;;4358810;33;43573;-77
2021/06/23 11:20:19;;;;;;;;;;;16.10;89.40;;;;;;4360379;33;32075;-78
2021/06/23 11:22:50;;;;;;;;;;;16.10;89.40;;;;;;4358615;33;44817;-77
2021/06/23 11:25:28;;;;;;;;;;;16.10;89.40;;;;;;4359872;33;40696;-77
2021/06/23 11:28:07;;;;;;;;;;;16.10;89.40;;;;;;4360307;33;30756;-77
2021/06/23 11:30:49;;;;;;;;;;;16.10;89.30;;;;;;4360462;33;27688;-77
2021/06/23 11:33:28;;;;;;;;;;;16.10;89.30;;;;;;4359651;33;44575;-77
2021/06/23 11:36:01;;;;;;;;;;;16.10;89.20;;;;;;4360164;33;43157;-77
2021/06/23 11:38:29;;;;;;;;;;;16.10;89.20;;;;;;4360459;33;25414;-77
2021/06/23 11:40:57;;;;;;;;;;;16.10;89.20;;;;;;4358375;33;42278;-78
2021/06/23 11:43:24;;;;;;;;;;;16.10;89.20;;;;;;4360043;33;20075;-77
2021/06/23 11:45:57;;;;;;;;;;;16.10;89.20;;;;;;4358568;33;43637;-78
2021/06/23 11:48:30;;;;;;;;;;;16.10;89.20;;;;;;4360145;32;43543;-78
2021/06/23 11:50:57;;;;;;;;;;;16.10;89.20;;;;;;4362709;32;34731;-78
2021/06/23 11:53:27;;;;;;;;;;;16.10;89.20;;;;;;4363770;32;20011;-78
2021/06/23 11:55:54;;;;;;;;;;;16.20;89.30;;;;;;4362576;32;26471;-78
2021/06/23 11:58:21;;;;;;;;;;;16.10;89.10;;;;;;4363167;32;20413;-78
2021/06/23 12:00:48;;;;;;;;;;;16.10;89.10;;;;;;4360933;32;43656;-77
2021/06/23 12:03:22;;;;;;;;;;;16.10;89.10;;;;;;4361156;32;44284;-77
2021/06/23 12:05:52;;;;;;;;;;;16.10;89.00;;;;;;4362322;32;44544;-77
2021/06/23 12:08:19;;;;;;;;;;;16.10;89.00;;;;;;4362053;32;36645;-78
2021/06/23 12:10:46;;;;;;;;;;;16.10;89.00;;;;;;4362312;32;44632;-78
2021/06/23 12:13:13;;;;;;;;;;;16.20;89.10;;;;;;4361556;32;20050;-77
2021/06/23 12:15:43;;;;;;;;;;;16.20;89.10;;;;;;4361901;32;43385;-77
2021/06/23 12:18:11;;;;;;;;;;;16.20;89.00;;;;;;4362002;32;36557;-77
2021/06/23 12:20:39;;;;;;;;;;;16.20;88.90;;;;;;4360611;32;44457;-78
2021/06/23 12:23:08;;;;;;;;;;;16.20;88.90;;;;;;4360698;32;42596;-78
2021/06/23 12:25:46;;;;;;;;;;;16.20;88.90;;;;;;4362092;32;43299;-77
2021/06/23 12:28:15;;;;;;;;;;;16.20;89.00;;;;;;4361206;32;44772;-77
2021/06/23 12:30:46;;;;;;;;;;;16.20;88.90;;;;;;4360944;32;44713;-77
2021/06/23 12:33:14;;;;;;;;;;;16.20;88.90;;;;;;4360917;32;43271;-78
2021/06/23 12:35:45;;;;;;;;;;;16.20;88.90;;;;;;4361875;32;20013;-77
2021/06/23 12:38:15;;;;;;;;;;;16.20;88.80;;;;;;4362221;32;20017;-77
2021/06/23 12:40:43;;;;;;;;;;;16.20;88.80;;;;;;4361627;32;43546;-77
2021/06/23 12:43:13;;;;;;;;;;;16.20;88.80;;;;;;4348518;32;43134;-77
2021/06/23 12:45:44;;;;;;;;;;;16.20;88.70;;;;;;4347970;32;42899;-77
2021/06/23 12:48:14;;;;;;;;;;;16.30;88.80;;;;;;4361111;32;44062;-77
2021/06/23 12:50:44;;;;;;;;;;;16.30;88.80;;;;;;4360437;32;43675;-77
2021/06/23 12:53:11;;;;;;;;;;;16.30;88.90;;;;;;4361835;32;43811;-76
2021/06/23 12:55:38;;;;;;;;;;;16.30;88.80;;;;;;4360870;32;38992;-77
2021/06/23 12:58:06;;;;;;;;;;;16.30;88.80;;;;;;4360308;32;43619;-77
2021/06/23 13:00:33;;;;;;;;;;;16.30;88.70;;;;;;4359661;32;44466;-77
2021/06/23 13:03:00;;;;;;;;;;;16.30;88.70;;;;;;4360102;32;44984;-77
2021/06/23 13:05:33;;;;;;;;;;;16.30;88.60;;;;;;4361135;32;27580;-77
2021/06/23 13:08:01;;;;;;;;;;;16.30;88.70;;;;;;4348149;32;41017;-77
2021/06/23 13:10:33;;;;;;;;;;;16.40;88.60;;;;;;4362744;32;20009;-78
2021/06/23 13:13:00;;;;;;;;;;;16.40;88.60;;;;;;4361444;32;44740;-77
2021/06/23 13:15:28;;;;;;;;;;;16.30;88.60;;;;;;4361555;32;20054;-77
2021/06/23 13:17:56;;;;;;;;;;;16.40;88.60;;;;;;4361353;32;43761;-77
2021/06/23 13:20:25;;;;;;;;;;;16.40;88.50;;;;;;4360927;32;44234;-77
2021/06/23 13:22:55;;;;;;;;;;;16.40;88.50;;;;;;4361173;32;42570;-77
2021/06/23 13:25:27;;;;;;;;;;;16.40;88.50;;;;;;4360616;32;30426;-77
2021/06/23 13:27:58;;;;;;;;;;;16.40;88.40;;;;;;4347927;32;42879;-77
2021/06/23 13:30:28;;;;;;;;;;;16.40;88.40;;;;;;4360839;32;43529;-77
2021/06/23 13:32:55;;;;;;;;;;;16.40;88.40;;;;;;4359801;32;43605;-79
2021/06/23 13:35:23;;;;;;;;;;;16.40;88.40;;;;;;4361165;32;20087;-77
2021/06/23 13:37:51;;;;;;;;;;;16.40;88.40;;;;;;4360617;32;44256;-77
2021/06/23 13:40:21;;;;;;;;;;;16.40;88.30;;;;;;4361549;32;25608;-77
2021/06/23 13:42:55;;;;;;;;;;;16.50;88.30;;;;;;4361055;32;26582;-77
2021/06/23 13:45:23;;;;;;;;;;;16.40;88.20;;;;;;4361305;32;43701;-77
2021/06/23 13:47:53;;;;;;;;;;;16.40;88.30;;;;;;4360421;32;44376;-77
2021/06/23 13:50:23;;;;;;;;;;;16.50;88.30;;;;;;4359343;32;44777;-77
2021/06/23 13:52:53;;;;;;;;;;;16.50;88.20;;;;;;4359824;32;44832;-77
2021/06/23 13:55:24;;;;;;;;;;;16.50;88.20;;;;;;4359296;32;44703;-78
2021/06/23 13:57:56;;;;;;;;;;;16.40;88.20;;;;;;4359564;32;45950;-77
2021/06/23 14:00:29;;;;;;;;;;;16.50;88.20;;;;;;4360011;32;44417;-77
2021/06/23 14:02:59;;;;;;;;;;;16.50;88.20;;;;;;4360382;32;43426;-77
2021/06/23 14:05:29;;;;;;;;;;;16.50;88.20;;;;;;4359765;32;22215;-77
2021/06/23 14:08:03;;;;;;;;;;;16.50;88.20;;;;;;4361120;32;25360;-77
2021/06/23 14:10:33;;;;;;;;;;;16.50;88.20;;;;;;4360453;32;43404;-77
2021/06/23 14:13:03;;;;;;;;;;;16.50;88.10;;;;;;4360451;32;43524;-77
2021/06/23 14:15:33;;;;;;;;;;;16.50;88.10;;;;;;4360738;32;43487;-77
2021/06/23 14:18:02;;;;;;;;;;;16.50;88.10;;;;;;4360590;32;44517;-77
2021/06/23 14:20:32;;;;;;;;;;;16.50;88.00;;;;;;4361421;32;20816;-77
2021/06/23 14:23:07;;;;;;;;;;;16.50;88.00;;;;;;4361089;32;20012;-77
2021/06/23 14:25:37;;;;;;;;;;;16.60;88.10;;;;;;4361661;32;20086;-77
2021/06/23 14:28:07;;;;;;;;;;;16.60;88.10;;;;;;4346871;32;44033;-77
2021/06/23 14:30:36;;;;;;;;;;;16.50;87.90;;;;;;4359873;32;26475;-77
2021/06/23 14:33:12;;;;;;;;;;;16.60;88.00;;;;;;4360718;32;20061;-77
2021/06/23 14:35:41;;;;;;;;;;;16.60;88.00;;;;;;4359864;32;44081;-77
2021/06/23 14:38:11;;;;;;;;;;;16.60;87.90;;;;;;4360332;32;44415;-77
2021/06/23 14:40:41;;;;;;;;;;;16.60;87.90;;;;;;4360381;32;43241;-77
2021/06/23 14:43:13;;;;;;;;;;;16.60;87.80;;;;;;4359869;32;44346;-77
2021/06/23 14:45:40;;;;;;;;;;;16.60;87.80;;;;;;4359508;32;44486;-77
2021/06/23 14:48:12;;;;;;;;;;;16.60;87.70;;;;;;4359342;32;30170;-77